Aérodrome :
LOGIN :

S'inscrire | Disclaimer

   EN    FR    IT 

 










Légende :    VFR   VFR Marginal   IFR   IFR Intensif   IFR Très Intensif
Visi : 
Plafond : 
>= 8 km
>= 3000ft
5 à 8 km
1000 à 3000 ft
1500m à 5 km
500 à 1000 ft
800 à 1500m
200 à 500 ft
< 800m
< 200 ft
Symboles :   Orages  Brouillard  Fortes neiges  Fortes précipitations  Vent > 20 kt
SIGMETs :   Divers  Orages  Givrage  Turbulence  Onde Orograph.  Cendres Volcan.






- Altitude de l'aérodrome : 33 ft
- Code IATA : MHZ


EGUN - RAF Mildenhall

DERNIER METAR :
  • 251956Z 34020G32KT 9999 SCT100 10/05 A2967 RMK AO2A PK WND 34030/1908 SLP046 WND DATA ESTMD ALSTG/SLP ESTMD RVRNO $

METARs EXPIRÉS :
  • 251855Z 35020G31KT 9999 CLR 11/03 A2965 RMK AO2A PK WND 34031/1826 SLP039 WND DATA ESTMD ALSTG/SLP ESTMD RVRNO PWINO PNO FZRANO VISNO RWY11 CHINO RWY11 $
  • 251755Z 35017G34KT 9999 BKN120 11/01 A2963 RMK AO2A SLP033 WND DATA ESTMD ALSTG/SLP ESTMD RVRNO PWINO PNO FZRANO VISNO RWY11 CHINO RWY11 $

TAF TAF EGUN
Valide du 25 à 20h jusqu'au 27 à 02h UTC


252000Z 2520/2702 32020G35KT 9999 SCT020 BKN030 520003 QNH2967INS
BECMG 2602/2603 31020G30KT 9999 SCT030 BKN040 520003 QNH2977INS
BECMG 2610/2611 32025G35KT 9000 -SHRA BKN025 520003 QNH2981INS
BECMG 2616/2617 33015G25KT 9000 -SHRA BKN015 QNH2985INS
BECMG 2620/2621 33015G25KT 9999 NSW BKN025 QNH2985INS TX12/2613Z TN07/2606Z



MET'MAP, la Météo Aéronautique d'un coup d'oeil ! - Copyright ORBIFLY Décembre 2007 - Disclaimer

ORBIFLY MET'MAP TEAM :

Programmation & Développement : Alexandra Zaïnal
Sur une idée originale de : Baudouin d'Aumeries
Assistance à la programmation : Marc-Olivier Méhu
Soutien technique & logistique : Manuel Goepfert

Contact : metmap@orbifly.com




SOURCES & CREDITS :

   NOAA